sensor_id;sensor_type;location;lat;lon;timestamp;pressure;altitude;pressure_sealevel;temperature;humidity
40171;BME280;37650;52.790;18.268;2023-02-14T00:03:01;102327.24;;;1.73;100.00
40171;BME280;37650;52.790;18.268;2023-02-14T00:06:22;102333.05;;;1.71;100.00
40171;BME280;37650;52.790;18.268;2023-02-14T00:09:42;102342.73;;;1.70;100.00
40171;BME280;37650;52.790;18.268;2023-02-14T00:13:03;102347.85;;;1.68;100.00
40171;BME280;37650;52.790;18.268;2023-02-14T00:16:24;102346.36;;;1.64;100.00
40171;BME280;37650;52.790;18.268;2023-02-14T00:19:45;102344.73;;;1.62;100.00
40171;BME280;37650;52.790;18.268;2023-02-14T00:23:06;102346.43;;;1.61;100.00
40171;BME280;37650;52.790;18.268;2023-02-14T00:26:27;102345.19;;;1.60;100.00
40171;BME280;37650;52.790;18.268;2023-02-14T00:29:48;102349.08;;;1.57;100.00
40171;BME280;37650;52.790;18.268;2023-02-14T00:33:09;102355.91;;;1.54;100.00
40171;BME280;37650;52.790;18.268;2023-02-14T00:36:31;102355.02;;;1.53;100.00
40171;BME280;37650;52.790;18.268;2023-02-14T00:39:52;102358.41;;;1.57;100.00
40171;BME280;37650;52.790;18.268;2023-02-14T00:43:13;102361.63;;;1.60;100.00
40171;BME280;37650;52.790;18.268;2023-02-14T00:46:34;102357.87;;;1.67;100.00
40171;BME280;37650;52.790;18.268;2023-02-14T00:49:56;102359.09;;;1.73;100.00
40171;BME280;37650;52.790;18.268;2023-02-14T00:53:22;102363.66;;;1.75;100.00
40171;BME280;37650;52.790;18.268;2023-02-14T00:56:44;102362.69;;;1.78;100.00
40171;BME280;37650;52.790;18.268;2023-02-14T01:00:05;102358.42;;;1.80;100.00
40171;BME280;37650;52.790;18.268;2023-02-14T01:03:27;102357.98;;;1.83;100.00
40171;BME280;37650;52.790;18.268;2023-02-14T01:06:49;102364.44;;;1.84;100.00
40171;BME280;37650;52.790;18.268;2023-02-14T01:10:10;102367.89;;;1.84;100.00
40171;BME280;37650;52.790;18.268;2023-02-14T01:13:31;102368.79;;;1.85;100.00
40171;BME280;37650;52.790;18.268;2023-02-14T01:16:52;102364.68;;;1.86;100.00
40171;BME280;37650;52.790;18.268;2023-02-14T01:20:13;102363.59;;;1.90;100.00
40171;BME280;37650;52.790;18.268;2023-02-14T01:23:34;102359.50;;;1.93;100.00
40171;BME280;37650;52.790;18.268;2023-02-14T01:26:55;102355.94;;;1.95;100.00
40171;BME280;37650;52.790;18.268;2023-02-14T01:30:17;102352.10;;;1.94;100.00
40171;BME280;37650;52.790;18.268;2023-02-14T01:33:39;102347.20;;;1.92;100.00
40171;BME280;37650;52.790;18.268;2023-02-14T01:37:00;102344.63;;;1.93;100.00
40171;BME280;37650;52.790;18.268;2023-02-14T01:40:21;102343.13;;;1.95;100.00
40171;BME280;37650;52.790;18.268;2023-02-14T01:43:52;102346.30;;;1.96;100.00
40171;BME280;37650;52.790;18.268;2023-02-14T01:47:13;102353.63;;;1.99;100.00
40171;BME280;37650;52.790;18.268;2023-02-14T01:50:40;102353.98;;;1.99;100.00
40171;BME280;37650;52.790;18.268;2023-02-14T01:54:05;102354.14;;;1.99;100.00
40171;BME280;37650;52.790;18.268;2023-02-14T01:57:40;102352.42;;;1.99;100.00
40171;BME280;37650;52.790;18.268;2023-02-14T02:01:03;102353.15;;;2.00;100.00
40171;BME280;37650;52.790;18.268;2023-02-14T02:09:15;102350.96;;;2.02;100.00
40171;BME280;37650;52.790;18.268;2023-02-14T02:12:37;102349.80;;;2.04;100.00
40171;BME280;37650;52.790;18.268;2023-02-14T02:16:11;102351.94;;;2.06;100.00
40171;BME280;37650;52.790;18.268;2023-02-14T02:23:40;102348.33;;;2.12;100.00
40171;BME280;37650;52.790;18.268;2023-02-14T02:27:54;102345.50;;;2.11;100.00
40171;BME280;37650;52.790;18.268;2023-02-14T02:35:48;102344.82;;;2.11;100.00
40171;BME280;37650;52.790;18.268;2023-02-14T02:46:51;102347.24;;;2.17;100.00
40171;BME280;37650;52.790;18.268;2023-02-14T02:50:21;102346.46;;;2.15;100.00
40171;BME280;37650;52.790;18.268;2023-02-14T02:54:15;102341.27;;;2.15;100.00
40171;BME280;37650;52.790;18.268;2023-02-14T02:57:41;102338.32;;;2.14;100.00
40171;BME280;37650;52.790;18.268;2023-02-14T03:01:08;102329.84;;;2.15;100.00
40171;BME280;37650;52.790;18.268;2023-02-14T03:04:31;102334.16;;;2.14;100.00
40171;BME280;37650;52.790;18.268;2023-02-14T03:08:11;102351.42;;;2.12;100.00
40171;BME280;37650;52.790;18.268;2023-02-14T03:11:32;102351.45;;;2.13;100.00
40171;BME280;37650;52.790;18.268;2023-02-14T03:21:55;102360.79;;;2.12;100.00
40171;BME280;37650;52.790;18.268;2023-02-14T03:32:41;102374.16;;;2.15;100.00
40171;BME280;37650;52.790;18.268;2023-02-14T03:36:12;102369.65;;;2.14;100.00
40171;BME280;37650;52.790;18.268;2023-02-14T03:40:12;102376.73;;;2.14;100.00
40171;BME280;37650;52.790;18.268;2023-02-14T03:43:39;102384.31;;;2.18;100.00
40171;BME280;37650;52.790;18.268;2023-02-14T03:51:46;102382.98;;;2.14;100.00
40171;BME280;37650;52.790;18.268;2023-02-14T03:55:08;102388.46;;;2.11;100.00
40171;BME280;37650;52.790;18.268;2023-02-14T03:58:33;102382.92;;;2.12;100.00
40171;BME280;37650;52.790;18.268;2023-02-14T04:02:04;102378.30;;;2.14;100.00
40171;BME280;37650;52.790;18.268;2023-02-14T04:05:26;102386.63;;;2.15;100.00
40171;BME280;37650;52.790;18.268;2023-02-14T04:08:48;102385.68;;;2.17;100.00
40171;BME280;37650;52.790;18.268;2023-02-14T04:12:09;102384.08;;;2.16;100.00
40171;BME280;37650;52.790;18.268;2023-02-14T04:15:30;102380.05;;;2.15;100.00
40171;BME280;37650;52.790;18.268;2023-02-14T04:18:51;102385.07;;;2.14;100.00
40171;BME280;37650;52.790;18.268;2023-02-14T04:22:30;102373.95;;;2.13;100.00
40171;BME280;37650;52.790;18.268;2023-02-14T04:25:51;102370.43;;;2.11;100.00
40171;BME280;37650;52.790;18.268;2023-02-14T04:29:12;102378.38;;;2.10;100.00
40171;BME280;37650;52.790;18.268;2023-02-14T04:32:33;102379.80;;;2.11;100.00
40171;BME280;37650;52.790;18.268;2023-02-14T04:35:54;102375.23;;;2.09;100.00
40171;BME280;37650;52.790;18.268;2023-02-14T04:39:15;102376.44;;;2.09;100.00
40171;BME280;37650;52.790;18.268;2023-02-14T04:42:37;102380.06;;;2.09;100.00
40171;BME280;37650;52.790;18.268;2023-02-14T04:45:57;102378.89;;;2.10;100.00
40171;BME280;37650;52.790;18.268;2023-02-14T04:49:18;102382.45;;;2.13;100.00
40171;BME280;37650;52.790;18.268;2023-02-14T04:52:40;102389.21;;;2.14;100.00
40171;BME280;37650;52.790;18.268;2023-02-14T04:56:01;102392.02;;;2.16;100.00
40171;BME280;37650;52.790;18.268;2023-02-14T04:59:21;102393.80;;;2.17;100.00
40171;BME280;37650;52.790;18.268;2023-02-14T05:02:43;102393.66;;;2.18;100.00
40171;BME280;37650;52.790;18.268;2023-02-14T05:06:04;102386.68;;;2.22;100.00
40171;BME280;37650;52.790;18.268;2023-02-14T05:09:25;102390.06;;;2.26;100.00
40171;BME280;37650;52.790;18.268;2023-02-14T05:12:46;102393.49;;;2.30;100.00
40171;BME280;37650;52.790;18.268;2023-02-14T05:16:07;102394.33;;;2.29;100.00
40171;BME280;37650;52.790;18.268;2023-02-14T05:19:28;102384.95;;;2.28;100.00
40171;BME280;37650;52.790;18.268;2023-02-14T05:22:49;102391.52;;;2.27;100.00
40171;BME280;37650;52.790;18.268;2023-02-14T05:26:10;102391.55;;;2.28;100.00
40171;BME280;37650;52.790;18.268;2023-02-14T05:29:31;102388.34;;;2.32;100.00
40171;BME280;37650;52.790;18.268;2023-02-14T05:32:53;102383.09;;;2.36;100.00
40171;BME280;37650;52.790;18.268;2023-02-14T05:36:14;102389.78;;;2.39;100.00
40171;BME280;37650;52.790;18.268;2023-02-14T05:39:35;102397.19;;;2.38;100.00
40171;BME280;37650;52.790;18.268;2023-02-14T05:42:55;102391.98;;;2.37;100.00
40171;BME280;37650;52.790;18.268;2023-02-14T05:46:17;102391.08;;;2.37;100.00
40171;BME280;37650;52.790;18.268;2023-02-14T05:49:38;102394.00;;;2.36;100.00
40171;BME280;37650;52.790;18.268;2023-02-14T05:52:59;102393.39;;;2.38;100.00
40171;BME280;37650;52.790;18.268;2023-02-14T05:56:20;102396.21;;;2.40;100.00
40171;BME280;37650;52.790;18.268;2023-02-14T05:59:41;102399.72;;;2.42;100.00
40171;BME280;37650;52.790;18.268;2023-02-14T06:03:02;102396.27;;;2.42;100.00
40171;BME280;37650;52.790;18.268;2023-02-14T06:06:23;102398.63;;;2.40;100.00
40171;BME280;37650;52.790;18.268;2023-02-14T06:09:44;102400.34;;;2.39;100.00
40171;BME280;37650;52.790;18.268;2023-02-14T06:13:05;102400.74;;;2.42;100.00
40171;BME280;37650;52.790;18.268;2023-02-14T06:16:28;102405.86;;;2.44;100.00
40171;BME280;37650;52.790;18.268;2023-02-14T06:19:49;102418.01;;;2.45;100.00
40171;BME280;37650;52.790;18.268;2023-02-14T06:23:11;102422.72;;;2.46;100.00
40171;BME280;37650;52.790;18.268;2023-02-14T06:26:32;102420.48;;;2.47;100.00
40171;BME280;37650;52.790;18.268;2023-02-14T06:29:55;102426.40;;;2.48;100.00
40171;BME280;37650;52.790;18.268;2023-02-14T06:33:16;102435.34;;;2.52;100.00
40171;BME280;37650;52.790;18.268;2023-02-14T06:36:37;102435.64;;;2.56;100.00
40171;BME280;37650;52.790;18.268;2023-02-14T06:39:58;102432.50;;;2.61;100.00
40171;BME280;37650;52.790;18.268;2023-02-14T06:43:19;102435.86;;;2.76;100.00
40171;BME280;37650;52.790;18.268;2023-02-14T06:46:40;102431.63;;;2.74;100.00
40171;BME280;37650;52.790;18.268;2023-02-14T06:50:02;102435.09;;;2.73;100.00
40171;BME280;37650;52.790;18.268;2023-02-14T06:53:24;102433.42;;;2.76;100.00
40171;BME280;37650;52.790;18.268;2023-02-14T06:56:45;102435.28;;;2.80;100.00
40171;BME280;37650;52.790;18.268;2023-02-14T07:00:06;102440.38;;;2.83;100.00
40171;BME280;37650;52.790;18.268;2023-02-14T07:03:28;102449.23;;;2.84;100.00
40171;BME280;37650;52.790;18.268;2023-02-14T07:06:49;102445.77;;;2.84;100.00
40171;BME280;37650;52.790;18.268;2023-02-14T07:10:10;102451.57;;;2.86;100.00
40171;BME280;37650;52.790;18.268;2023-02-14T07:13:31;102460.36;;;2.91;100.00
40171;BME280;37650;52.790;18.268;2023-02-14T07:16:52;102454.18;;;2.93;100.00
40171;BME280;37650;52.790;18.268;2023-02-14T07:20:13;102453.23;;;2.96;100.00
40171;BME280;37650;52.790;18.268;2023-02-14T07:23:34;102458.66;;;2.99;100.00
40171;BME280;37650;52.790;18.268;2023-02-14T07:26:55;102456.43;;;3.00;100.00
40171;BME280;37650;52.790;18.268;2023-02-14T07:30:16;102453.67;;;3.01;100.00
40171;BME280;37650;52.790;18.268;2023-02-14T07:33:37;102464.15;;;3.03;100.00
40171;BME280;37650;52.790;18.268;2023-02-14T07:36:59;102464.27;;;3.08;100.00
40171;BME280;37650;52.790;18.268;2023-02-14T07:40:20;102460.85;;;3.15;100.00
40171;BME280;37650;52.790;18.268;2023-02-14T07:43:41;102460.84;;;3.16;100.00
40171;BME280;37650;52.790;18.268;2023-02-14T07:47:02;102464.41;;;3.19;100.00
40171;BME280;37650;52.790;18.268;2023-02-14T07:50:23;102468.77;;;3.20;100.00
40171;BME280;37650;52.790;18.268;2023-02-14T07:53:44;102468.22;;;3.26;100.00
40171;BME280;37650;52.790;18.268;2023-02-14T07:57:05;102476.27;;;3.28;100.00
40171;BME280;37650;52.790;18.268;2023-02-14T08:00:26;102473.83;;;3.34;100.00
40171;BME280;37650;52.790;18.268;2023-02-14T08:03:48;102466.19;;;3.41;100.00
40171;BME280;37650;52.790;18.268;2023-02-14T08:07:08;102463.34;;;3.45;100.00
40171;BME280;37650;52.790;18.268;2023-02-14T08:10:30;102475.68;;;3.45;100.00
40171;BME280;37650;52.790;18.268;2023-02-14T08:13:51;102484.13;;;3.50;100.00
40171;BME280;37650;52.790;18.268;2023-02-14T08:17:12;102479.20;;;3.54;100.00
40171;BME280;37650;52.790;18.268;2023-02-14T08:20:33;102477.06;;;3.59;100.00
40171;BME280;37650;52.790;18.268;2023-02-14T08:23:53;102487.91;;;3.63;100.00
40171;BME280;37650;52.790;18.268;2023-02-14T08:27:14;102492.91;;;3.68;100.00
40171;BME280;37650;52.790;18.268;2023-02-14T08:30:36;102487.45;;;3.72;100.00
40171;BME280;37650;52.790;18.268;2023-02-14T08:33:57;102495.91;;;3.77;100.00
40171;BME280;37650;52.790;18.268;2023-02-14T08:37:19;102495.41;;;3.85;100.00
40171;BME280;37650;52.790;18.268;2023-02-14T08:40:40;102492.25;;;3.92;100.00
40171;BME280;37650;52.790;18.268;2023-02-14T08:44:01;102489.86;;;3.93;100.00
40171;BME280;37650;52.790;18.268;2023-02-14T08:47:22;102488.78;;;3.99;100.00
40171;BME280;37650;52.790;18.268;2023-02-14T08:50:43;102499.70;;;3.98;100.00
40171;BME280;37650;52.790;18.268;2023-02-14T08:54:04;102491.55;;;3.98;100.00
40171;BME280;37650;52.790;18.268;2023-02-14T08:57:25;102494.80;;;4.04;100.00
40171;BME280;37650;52.790;18.268;2023-02-14T09:00:47;102495.83;;;4.17;100.00
40171;BME280;37650;52.790;18.268;2023-02-14T09:04:08;102493.84;;;4.22;100.00
40171;BME280;37650;52.790;18.268;2023-02-14T09:07:29;102500.73;;;4.28;100.00
40171;BME280;37650;52.790;18.268;2023-02-14T09:10:50;102490.09;;;4.33;100.00
40171;BME280;37650;52.790;18.268;2023-02-14T09:14:11;102498.54;;;4.38;100.00
40171;BME280;37650;52.790;18.268;2023-02-14T09:17:32;102506.73;;;4.38;100.00
40171;BME280;37650;52.790;18.268;2023-02-14T09:20:53;102508.74;;;4.51;100.00
40171;BME280;37650;52.790;18.268;2023-02-14T09:24:14;102510.56;;;4.48;100.00
40171;BME280;37650;52.790;18.268;2023-02-14T09:27:35;102516.23;;;4.45;100.00
40171;BME280;37650;52.790;18.268;2023-02-14T09:30:56;102521.53;;;4.48;100.00
40171;BME280;37650;52.790;18.268;2023-02-14T09:34:17;102523.60;;;4.55;100.00
40171;BME280;37650;52.790;18.268;2023-02-14T09:37:38;102520.36;;;4.67;100.00
40171;BME280;37650;52.790;18.268;2023-02-14T09:41:05;102523.04;;;4.78;100.00
40171;BME280;37650;52.790;18.268;2023-02-14T09:44:32;102522.39;;;4.88;100.00
40171;BME280;37650;52.790;18.268;2023-02-14T09:48:07;102516.85;;;4.89;100.00
40171;BME280;37650;52.790;18.268;2023-02-14T09:51:30;102519.14;;;4.92;100.00
40171;BME280;37650;52.790;18.268;2023-02-14T09:54:54;102527.38;;;5.03;100.00
40171;BME280;37650;52.790;18.268;2023-02-14T09:58:41;102525.63;;;5.12;100.00
40171;BME280;37650;52.790;18.268;2023-02-14T10:05:58;102523.98;;;5.25;100.00
40171;BME280;37650;52.790;18.268;2023-02-14T10:09:26;102521.06;;;5.27;100.00
40171;BME280;37650;52.790;18.268;2023-02-14T10:13:04;102509.38;;;5.27;100.00
40171;BME280;37650;52.790;18.268;2023-02-14T10:16:38;102514.25;;;5.17;100.00
40171;BME280;37650;52.790;18.268;2023-02-14T10:20:03;102512.52;;;5.27;100.00
40171;BME280;37650;52.790;18.268;2023-02-14T10:23:42;102504.11;;;5.33;100.00
40171;BME280;37650;52.790;18.268;2023-02-14T10:27:35;102500.92;;;5.39;100.00
40171;BME280;37650;52.790;18.268;2023-02-14T10:38:29;102485.70;;;5.35;100.00
40171;BME280;37650;52.790;18.268;2023-02-14T10:53:58;102491.24;;;5.43;100.00
40171;BME280;37650;52.790;18.268;2023-02-14T10:56:57;102486.65;;;5.60;100.00
40171;BME280;37650;52.790;18.268;2023-02-14T11:00:27;102497.88;;;5.75;100.00
40171;BME280;37650;52.790;18.268;2023-02-14T11:03:58;102503.39;;;5.71;100.00
40171;BME280;37650;52.790;18.268;2023-02-14T11:07:23;102493.07;;;5.69;100.00
40171;BME280;37650;52.790;18.268;2023-02-14T11:10:45;102499.89;;;5.70;100.00
40171;BME280;37650;52.790;18.268;2023-02-14T11:14:27;102499.14;;;5.58;100.00
40171;BME280;37650;52.790;18.268;2023-02-14T11:18:07;102485.98;;;5.50;100.00
40171;BME280;37650;52.790;18.268;2023-02-14T11:21:37;102484.33;;;5.57;100.00
40171;BME280;37650;52.790;18.268;2023-02-14T11:25:10;102480.95;;;5.63;100.00
40171;BME280;37650;52.790;18.268;2023-02-14T11:28:47;102480.01;;;5.69;100.00
40171;BME280;37650;52.790;18.268;2023-02-14T11:32:12;102483.27;;;5.66;100.00
40171;BME280;37650;52.790;18.268;2023-02-14T11:35:34;102481.88;;;5.77;100.00
40171;BME280;37650;52.790;18.268;2023-02-14T11:39:24;102480.61;;;5.84;100.00
40171;BME280;37650;52.790;18.268;2023-02-14T11:42:48;102475.85;;;5.90;100.00
40171;BME280;37650;52.790;18.268;2023-02-14T11:49:40;102482.88;;;5.94;100.00
40171;BME280;37650;52.790;18.268;2023-02-14T11:53:20;102475.61;;;5.96;100.00
40171;BME280;37650;52.790;18.268;2023-02-14T11:57:00;102477.94;;;5.90;100.00
40171;BME280;37650;52.790;18.268;2023-02-14T12:00:24;102474.02;;;5.96;100.00
40171;BME280;37650;52.790;18.268;2023-02-14T12:03:51;102472.25;;;5.94;100.00
40171;BME280;37650;52.790;18.268;2023-02-14T12:07:35;102472.23;;;5.91;100.00
40171;BME280;37650;52.790;18.268;2023-02-14T12:11:02;102470.39;;;5.97;100.00
40171;BME280;37650;52.790;18.268;2023-02-14T12:14:27;102467.89;;;6.05;100.00
40171;BME280;37650;52.790;18.268;2023-02-14T12:17:55;102459.88;;;6.17;100.00
40171;BME280;37650;52.790;18.268;2023-02-14T12:25:43;102454.33;;;6.31;100.00
40171;BME280;37650;52.790;18.268;2023-02-14T12:32:37;102458.34;;;6.32;100.00
40171;BME280;37650;52.790;18.268;2023-02-14T12:36:42;102455.38;;;6.19;100.00
40171;BME280;37650;52.790;18.268;2023-02-14T12:40:24;102463.17;;;6.05;100.00
40171;BME280;37650;52.790;18.268;2023-02-14T12:43:52;102450.92;;;6.12;100.00
40171;BME280;37650;52.790;18.268;2023-02-14T12:51:10;102446.83;;;6.07;100.00
40171;BME280;37650;52.790;18.268;2023-02-14T12:58:28;102449.71;;;6.01;100.00
40171;BME280;37650;52.790;18.268;2023-02-14T13:12:35;102447.09;;;5.69;100.00
40171;BME280;37650;52.790;18.268;2023-02-14T13:16:13;102443.46;;;5.71;100.00
40171;BME280;37650;52.790;18.268;2023-02-14T13:19:54;102440.35;;;5.71;100.00
40171;BME280;37650;52.790;18.268;2023-02-14T13:23:37;102446.52;;;5.76;100.00
40171;BME280;37650;52.790;18.268;2023-02-14T13:27:02;102443.98;;;5.70;100.00
40171;BME280;37650;52.790;18.268;2023-02-14T13:30:28;102440.44;;;5.67;100.00
40171;BME280;37650;52.790;18.268;2023-02-14T13:33:53;102440.63;;;5.66;100.00
40171;BME280;37650;52.790;18.268;2023-02-14T13:37:19;102438.10;;;5.72;100.00
40171;BME280;37650;52.790;18.268;2023-02-14T13:40:41;102438.54;;;5.79;100.00
40171;BME280;37650;52.790;18.268;2023-02-14T13:44:02;102432.06;;;5.76;100.00
40171;BME280;37650;52.790;18.268;2023-02-14T13:47:25;102428.75;;;5.76;100.00
40171;BME280;37650;52.790;18.268;2023-02-14T13:51:00;102431.38;;;5.77;100.00
40171;BME280;37650;52.790;18.268;2023-02-14T13:58:22;102430.17;;;5.78;100.00
40171;BME280;37650;52.790;18.268;2023-02-14T14:01:45;102437.00;;;5.69;100.00
40171;BME280;37650;52.790;18.268;2023-02-14T14:08:51;102432.34;;;5.61;100.00
40171;BME280;37650;52.790;18.268;2023-02-14T14:12:41;102429.92;;;5.73;100.00
40171;BME280;37650;52.790;18.268;2023-02-14T14:19:47;102422.85;;;6.12;100.00
40171;BME280;37650;52.790;18.268;2023-02-14T14:27:02;102414.29;;;6.09;100.00
40171;BME280;37650;52.790;18.268;2023-02-14T14:30:30;102413.80;;;6.11;100.00
40171;BME280;37650;52.790;18.268;2023-02-14T14:34:00;102411.73;;;6.14;100.00
40171;BME280;37650;52.790;18.268;2023-02-14T14:37:27;102406.26;;;6.08;100.00
40171;BME280;37650;52.790;18.268;2023-02-14T14:40:49;102402.51;;;6.01;100.00
40171;BME280;37650;52.790;18.268;2023-02-14T14:44:10;102405.16;;;5.92;100.00
40171;BME280;37650;52.790;18.268;2023-02-14T14:47:40;102401.07;;;5.87;100.00
40171;BME280;37650;52.790;18.268;2023-02-14T14:51:03;102402.70;;;5.81;100.00
40171;BME280;37650;52.790;18.268;2023-02-14T14:54:25;102403.83;;;5.75;100.00
40171;BME280;37650;52.790;18.268;2023-02-14T14:57:50;102406.70;;;5.69;100.00
40171;BME280;37650;52.790;18.268;2023-02-14T15:01:25;102409.45;;;5.66;100.00
40171;BME280;37650;52.790;18.268;2023-02-14T15:04:50;102406.61;;;5.63;100.00
40171;BME280;37650;52.790;18.268;2023-02-14T15:08:26;102405.20;;;5.62;100.00
40171;BME280;37650;52.790;18.268;2023-02-14T15:11:52;102400.41;;;5.68;100.00
40171;BME280;37650;52.790;18.268;2023-02-14T15:15:31;102397.60;;;5.66;100.00
40171;BME280;37650;52.790;18.268;2023-02-14T15:22:43;102396.18;;;5.41;100.00
40171;BME280;37650;52.790;18.268;2023-02-14T15:26:07;102393.98;;;5.35;100.00
40171;BME280;37650;52.790;18.268;2023-02-14T15:29:31;102398.06;;;5.29;100.00
40171;BME280;37650;52.790;18.268;2023-02-14T15:32:52;102392.73;;;5.23;100.00
40171;BME280;37650;52.790;18.268;2023-02-14T15:36:18;102388.39;;;5.13;100.00
40171;BME280;37650;52.790;18.268;2023-02-14T15:39:47;102394.86;;;5.05;100.00
40171;BME280;37650;52.790;18.268;2023-02-14T15:43:32;102394.36;;;4.97;100.00
40171;BME280;37650;52.790;18.268;2023-02-14T15:47:02;102390.98;;;4.83;100.00
40171;BME280;37650;52.790;18.268;2023-02-14T15:50:29;102390.89;;;4.69;100.00
40171;BME280;37650;52.790;18.268;2023-02-14T15:53:51;102390.40;;;4.61;100.00
40171;BME280;37650;52.790;18.268;2023-02-14T15:57:24;102386.38;;;4.52;100.00
40171;BME280;37650;52.790;18.268;2023-02-14T16:00:47;102391.13;;;4.37;100.00
40171;BME280;37650;52.790;18.268;2023-02-14T16:04:15;102394.80;;;4.21;100.00
40171;BME280;37650;52.790;18.268;2023-02-14T16:07:36;102393.91;;;4.12;100.00
40171;BME280;37650;52.790;18.268;2023-02-14T16:14:34;102396.70;;;3.81;100.00
40171;BME280;37650;52.790;18.268;2023-02-14T16:17:56;102396.85;;;3.65;100.00
40171;BME280;37650;52.790;18.268;2023-02-14T16:21:30;102399.71;;;3.54;100.00
40171;BME280;37650;52.790;18.268;2023-02-14T16:24:52;102399.33;;;3.45;100.00
40171;BME280;37650;52.790;18.268;2023-02-14T16:28:38;102400.11;;;3.34;100.00
40171;BME280;37650;52.790;18.268;2023-02-14T16:32:15;102404.49;;;3.23;100.00
40171;BME280;37650;52.790;18.268;2023-02-14T16:35:38;102402.92;;;3.09;100.00
40171;BME280;37650;52.790;18.268;2023-02-14T16:39:33;102398.73;;;2.94;100.00
40171;BME280;37650;52.790;18.268;2023-02-14T16:43:04;102398.86;;;2.79;100.00
40171;BME280;37650;52.790;18.268;2023-02-14T16:46:30;102404.09;;;2.68;100.00
40171;BME280;37650;52.790;18.268;2023-02-14T16:49:52;102404.03;;;2.60;100.00
40171;BME280;37650;52.790;18.268;2023-02-14T16:53:25;102407.17;;;2.54;100.00
40171;BME280;37650;52.790;18.268;2023-02-14T17:00:45;102408.65;;;2.39;100.00
40171;BME280;37650;52.790;18.268;2023-02-14T17:04:06;102407.06;;;2.32;100.00
40171;BME280;37650;52.790;18.268;2023-02-14T17:07:30;102408.52;;;2.23;100.00
40171;BME280;37650;52.790;18.268;2023-02-14T17:10:52;102415.65;;;2.12;100.00
40171;BME280;37650;52.790;18.268;2023-02-14T17:14:21;102416.55;;;2.07;100.00
40171;BME280;37650;52.790;18.268;2023-02-14T17:17:45;102418.22;;;2.00;100.00
40171;BME280;37650;52.790;18.268;2023-02-14T17:21:41;102415.48;;;1.95;100.00
40171;BME280;37650;52.790;18.268;2023-02-14T17:25:58;102418.11;;;1.90;100.00
40171;BME280;37650;52.790;18.268;2023-02-14T17:29:19;102414.45;;;1.84;100.00
40171;BME280;37650;52.790;18.268;2023-02-14T17:32:43;102412.75;;;1.79;100.00
40171;BME280;37650;52.790;18.268;2023-02-14T17:36:07;102413.27;;;1.79;100.00
40171;BME280;37650;52.790;18.268;2023-02-14T17:39:31;102411.62;;;1.82;100.00
40171;BME280;37650;52.790;18.268;2023-02-14T17:42:55;102408.30;;;1.81;100.00
40171;BME280;37650;52.790;18.268;2023-02-14T17:46:17;102411.34;;;1.79;100.00
40171;BME280;37650;52.790;18.268;2023-02-14T17:49:39;102413.13;;;1.75;100.00
40171;BME280;37650;52.790;18.268;2023-02-14T17:53:01;102415.16;;;1.74;100.00
40171;BME280;37650;52.790;18.268;2023-02-14T17:56:24;102416.98;;;1.77;100.00
40171;BME280;37650;52.790;18.268;2023-02-14T17:59:47;102415.11;;;1.78;100.00
40171;BME280;37650;52.790;18.268;2023-02-14T18:03:09;102412.33;;;1.71;100.00
40171;BME280;37650;52.790;18.268;2023-02-14T18:06:31;102410.06;;;1.72;100.00
40171;BME280;37650;52.790;18.268;2023-02-14T18:09:53;102411.08;;;1.76;100.00
40171;BME280;37650;52.790;18.268;2023-02-14T18:13:15;102408.72;;;1.78;100.00
40171;BME280;37650;52.790;18.268;2023-02-14T18:16:39;102408.73;;;1.78;100.00
40171;BME280;37650;52.790;18.268;2023-02-14T18:20:04;102408.30;;;1.70;100.00
40171;BME280;37650;52.790;18.268;2023-02-14T18:23:30;102406.03;;;1.64;100.00
40171;BME280;37650;52.790;18.268;2023-02-14T18:26:55;102405.66;;;1.58;100.00
40171;BME280;37650;52.790;18.268;2023-02-14T18:30:18;102407.38;;;1.52;100.00
40171;BME280;37650;52.790;18.268;2023-02-14T18:33:45;102398.36;;;1.57;100.00
40171;BME280;37650;52.790;18.268;2023-02-14T18:37:12;102398.12;;;1.60;100.00
40171;BME280;37650;52.790;18.268;2023-02-14T18:40:35;102396.98;;;1.62;100.00
40171;BME280;37650;52.790;18.268;2023-02-14T18:44:00;102400.21;;;1.60;100.00
40171;BME280;37650;52.790;18.268;2023-02-14T18:47:22;102397.54;;;1.58;100.00
40171;BME280;37650;52.790;18.268;2023-02-14T18:50:44;102400.42;;;1.51;100.00
40171;BME280;37650;52.790;18.268;2023-02-14T18:54:06;102401.86;;;1.47;100.00
40171;BME280;37650;52.790;18.268;2023-02-14T18:57:36;102402.88;;;1.47;100.00
40171;BME280;37650;52.790;18.268;2023-02-14T19:00:58;102399.48;;;1.48;100.00
40171;BME280;37650;52.790;18.268;2023-02-14T19:04:20;102391.91;;;1.50;100.00
40171;BME280;37650;52.790;18.268;2023-02-14T19:07:46;102386.02;;;1.49;100.00
40171;BME280;37650;52.790;18.268;2023-02-14T19:11:14;102385.69;;;1.49;100.00
40171;BME280;37650;52.790;18.268;2023-02-14T19:14:39;102387.38;;;1.43;100.00
40171;BME280;37650;52.790;18.268;2023-02-14T19:18:01;102389.67;;;1.39;100.00
40171;BME280;37650;52.790;18.268;2023-02-14T19:21:24;102386.34;;;1.33;100.00
40171;BME280;37650;52.790;18.268;2023-02-14T19:24:55;102386.39;;;1.29;100.00
40171;BME280;37650;52.790;18.268;2023-02-14T19:28:17;102387.91;;;1.28;100.00
40171;BME280;37650;52.790;18.268;2023-02-14T19:31:44;102388.09;;;1.28;100.00
40171;BME280;37650;52.790;18.268;2023-02-14T19:35:11;102388.91;;;1.26;100.00
40171;BME280;37650;52.790;18.268;2023-02-14T19:38:34;102389.83;;;1.28;100.00
40171;BME280;37650;52.790;18.268;2023-02-14T19:41:57;102388.65;;;1.24;100.00